HOURLY OBS INDEX

097

West Coast Mountain Region

CAPE SORELL

Site: 097000
Alt: 19.3m
34km WSW of QUEENSTOWN


  Time     Wind        Temp  DP   Baro     Rain since   Rain past  Vis(m), Cloud(base in m), Weather
  local        km/h                         9am  last   hr   10m    
Thu 17:00  SSW 26/ 30  15.4  8.6  1016.6    0.0   0.0   0.0   0.0   ----- 
Thu 17:30  SSW 26/ 30  15.3  8.1  1016.8    0.0   0.0   0.0   0.0   ----- 
Thu 18:00  SSW 22/ 26  15.4  8.4  1017.0    0.0   0.0   0.0   0.0   ----- 
Thu 18:30  SSW 19/ 24  14.9  7.5  1016.9    0.0   0.0   0.0   0.0   ----- 
Thu 19:00  SSW 20/ 24  14.6  7.2  1017.1    0.0   0.0   0.0   0.0   ----- 
Thu 19:30  SSW 20/ 24  14.2  7.0  1017.7    0.0   0.0   0.0   0.0   ----- 
Thu 20:00  SSW 19/ 20  13.4  7.2  1018.0    0.0   0.0   0.0   0.0   ----- 
Thu 20:30  SSW 19/ 22  12.6  7.1  1018.3    0.0   0.0   0.0   0.0   ----- 
Thu 21:00    S 17/ 20  12.5  7.4  1018.3    0.0   0.0   0.0   0.0   ----- 
Thu 21:30    S 17/ 20  12.5  7.8  1018.3    0.0   0.0   0.0   0.0   ----- 
Thu 22:00    S 15/ 19  12.3  7.6  1018.6    0.0   0.0   0.0   0.0   ----- 

LOW ROCKY POINT

Site: 097080
Alt: 34.0m
51km WSW of STRATHGORDON VILLAGE


  Time     Wind        Temp  DP   Baro     Rain since   Rain past  Vis(m), Cloud(base in m), Weather
  local        km/h                         9am  last   hr   10m    
Thu 17:00  WSW 19/ 26  15.8  8.3  1016.8   ----  ----  ----  ----   ----- 
Thu 17:30  WSW 17/ 22  15.6  8.1  1017.0   ----  ----  ----  ----   ----- 
Thu 18:00  WSW 19/ 24  14.2  7.0  1017.1   ----  ----  ----  ----   ----- 
Thu 18:30   SW 17/ 24  14.6  8.5  1017.3   ----  ----  ----  ----   ----- 
Thu 19:00   SW 15/ 20  13.8  7.1  1017.6   ----  ----  ----  ----   ----- 
Thu 19:30  SSW 13/ 20  13.5  7.3  1017.9   ----  ----  ----  ----   ----- 
Thu 20:00  SSW 13/ 19  12.2  6.0  1018.4   ----  ----  ----  ----   ----- 
Thu 20:30   SW  9/ 15  11.0  5.7  1018.7   ----  ----  ----  ----   ----- 
Thu 21:00  WSW  9/ 13  10.8  5.8  1018.7   ----  ----  ----  ----   ----- 
Thu 21:30    C  0/  0  10.3  5.3  1018.9   ----  ----  ----  ----   ----- 
Thu 22:00    C  0/  0  10.1  5.3  1019.1   ----  ----  ----  ----   ----- 

MOUNT READ

Site: 097085
Alt: 1119.5m
26km N of QUEENSTOWN


  Time     Wind        Temp  DP   Baro     Rain since   Rain past  Vis(m), Cloud(base in m), Weather
  local        km/h                         9am  last   hr   10m    
Thu 17:00  ESE 33/ 43   7.0----  1015.3    0.0   0.0   0.0   0.0   ----- 
Thu 17:30  ESE 28/ 39   7.1----  1015.7    0.0   0.0   0.0   0.0   ----- 
Thu 18:00    E 26/ 37   6.7----  1015.8    0.0   0.0   0.0   0.0   ----- 
Thu 18:30    E 26/ 33   6.3----  1015.9    0.0   0.0   0.0   0.0   ----- 
Thu 19:00    E 22/ 30   6.3----  1016.2    0.0   0.0   0.0   0.0   ----- 
Thu 19:30    E 19/ 24   5.8----  1016.6    0.0   0.0   0.0   0.0   ----- 
Thu 20:00    E 22/ 26   5.1----  1016.9    0.0   0.0   0.0   0.0   ----- 
Thu 20:30  ESE 24/ 26   4.2----  1017.1    0.2   0.2   0.2   0.0   ----- 
Thu 21:00  ESE 26/ 28   3.5----  1017.2    0.2   0.0   0.2   0.0   ----- 
Thu 21:30  ESE 15/ 19   3.4----  1017.4    0.2   0.0   0.0   0.0   ----- 
Thu 22:00  ESE 17/ 20   4.7----  1017.8    0.2   0.0   0.0   0.0   ----- 

SCOTTS PEAK DAM

Site: 097083
Alt: 408.0m
36km SSE of STRATHGORDON VILLAGE


  Time     Wind        Temp  DP   Baro     Rain since   Rain past  Vis(m), Cloud(base in m), Weather
  local        km/h                         9am  last   hr   10m    
Thu 17:00  WNW 24/ 33  14.0  4.9  ------    0.0   0.0   0.0   0.0   ----- 
Thu 17:30  WSW 28/ 37  12.9  3.3  ------    0.0   0.0   0.0   0.0   ----- 
Thu 18:00  WSW 22/ 32  13.9  4.5  ------    0.0   0.0   0.0   0.0   ----- 
Thu 18:30    S 13/ 28  13.4  4.8  ------    0.0   0.0   0.0   0.0   ----- 
Thu 19:00  WSW 20/ 32  11.4  3.7  ------    0.0   0.0   0.0   0.0   ----- 
Thu 19:30    W 20/ 28  10.7  3.5  ------    0.0   0.0   0.0   0.0   ----- 
Thu 20:00  WSW 17/ 22   9.7  4.1  ------    0.0   0.0   0.0   0.0   ----- 
Thu 20:30  WSW 17/ 20   8.9  4.9  ------    0.0   0.0   0.0   0.0   ----- 
Thu 21:00  WSW 15/ 19   8.3  5.4  ------    0.0   0.0   0.0   0.0   ----- 
Thu 21:30  WSW 15/ 19   8.0  5.3  ------    0.0   0.0   0.0   0.0   ----- 
Thu 22:00  WSW 13/ 20   7.3  5.0  ------    0.0   0.0   0.0   0.0   ----- 

STRAHAN AERODROME

Site: 097072
Alt: 21.0m
23km WSW of QUEENSTOWN


  Time     Wind        Temp  DP   Baro     Rain since   Rain past  Vis(m), Cloud(base in m), Weather
  local        km/h                         9am  last   hr   10m    
Thu 17:00   SW 24/ 35  15.4  7.7  1016.9    0.2   0.0   0.0   0.0   10000 
Thu 17:30  SSW 24/ 33  15.5  6.5  1017.0    0.2   0.0   0.0   0.0   10000 
Thu 18:00  SSW 20/ 28  15.6  7.1  1017.2    0.2   0.0   0.0   0.0   10000 
Thu 18:30  SSW 20/ 26  14.9  6.5  1017.2    0.2   0.0   0.0   0.0   10000|SC1140 
Thu 19:00    S 19/ 24  14.4  5.0  1017.4    0.2   0.0   0.0   0.0   10000 
Thu 19:30  SSW 17/ 20  13.8  4.9  1018.0    0.2   0.0   0.0   0.0   10000 
Thu 20:00   SW 15/ 19  12.5  6.1  1018.4    0.2   0.0   0.0   0.0   10000 
Thu 20:30   SW 11/ 13  10.7  6.3  1018.7    0.2   0.0   0.0   0.0   10000 
Thu 21:00    S 13/ 15   9.8  6.9  1018.7    0.2   0.0   0.0   0.0   10000 
Thu 21:30    S 13/ 17   9.3  6.6  1018.7    0.2   0.0   0.0   0.0   10000 
Thu 22:00    S 11/ 13   8.5  6.8  1019.0    0.2   0.0   0.0   0.0   10000 

WARRA

Site: 097024
Alt: 495.0m
28km W of HUONVILLE


  Time     Wind        Temp  DP   Baro     Rain since   Rain past  Vis(m), Cloud(base in m), Weather
  local        km/h                         9am  last   hr   10m    
Thu 17:00   SW 20/ 45  14.1  3.6  ------    0.2   0.0   0.0   0.0   ----- 
Thu 17:21   SW 28/ 46  12.7  2.0  ------    0.2   0.0  ----   0.0   ----- 
Thu 17:30  WSW 26/ 46  13.0  2.8  ------    0.2   0.0   0.0   0.0   ----- 
Thu 18:00  WSW 19/ 35  12.1  2.6  ------    0.2   0.0   0.0   0.0   ----- 
Thu 18:30    W 13/ 26  12.1  2.8  ------    0.2   0.0   0.0   0.0   ----- 
Thu 19:00    W  9/ 19  11.3  2.3  ------    0.2   0.0   0.0   0.0   ----- 
Thu 19:30    W 17/ 30  10.7  1.8  ------    0.2   0.0   0.0   0.0   ----- 
Thu 20:00    W 13/ 22   9.6  1.8  ------    0.2   0.0   0.0   0.0   ----- 
Thu 20:30    W 11/ 19   8.6  2.2  ------    0.2   0.0   0.0   0.0   ----- 
Thu 21:00  WSW 11/ 20   8.1  2.6  ------    0.2   0.0   0.0   0.0   ----- 
Thu 21:30    W 11/ 17   7.6  2.7  ------    0.2   0.0   0.0   0.0   ----- 
Thu 22:00    W 17/ 20   7.3  2.8  ------    0.2   0.0   0.0   0.0   -----